sensor_id;sensor_type;location;lat;lon;timestamp;P1;durP1;ratioP1;P2;durP2;ratioP2
58302;SDS011;44109;52.398;7.024;2023-03-01T00:01:44;12.70;;;9.15;;
58302;SDS011;44109;52.398;7.024;2023-03-01T00:04:11;9.93;;;5.85;;
58302;SDS011;44109;52.398;7.024;2023-03-01T00:06:39;14.95;;;7.85;;
58302;SDS011;44109;52.398;7.024;2023-03-01T00:09:11;13.32;;;7.05;;
58302;SDS011;44109;52.398;7.024;2023-03-01T00:11:40;9.77;;;6.57;;
58302;SDS011;44109;52.398;7.024;2023-03-01T00:14:08;11.75;;;6.88;;
58302;SDS011;44109;52.398;7.024;2023-03-01T00:16:37;14.48;;;8.95;;
58302;SDS011;44109;52.398;7.024;2023-03-01T00:19:07;13.18;;;8.63;;
58302;SDS011;44109;52.398;7.024;2023-03-01T00:21:39;11.77;;;7.55;;
58302;SDS011;44109;52.398;7.024;2023-03-01T00:24:08;13.02;;;8.00;;
58302;SDS011;44109;52.398;7.024;2023-03-01T00:26:37;13.77;;;8.45;;
58302;SDS011;44109;52.398;7.024;2023-03-01T00:29:06;12.32;;;8.23;;
58302;SDS011;44109;52.398;7.024;2023-03-01T00:31:34;10.88;;;7.00;;
58302;SDS011;44109;52.398;7.024;2023-03-01T00:34:03;8.93;;;5.85;;
58302;SDS011;44109;52.398;7.024;2023-03-01T00:36:33;9.25;;;6.20;;
58302;SDS011;44109;52.398;7.024;2023-03-01T00:39:04;11.32;;;6.68;;
58302;SDS011;44109;52.398;7.024;2023-03-01T00:41:36;14.30;;;7.50;;
58302;SDS011;44109;52.398;7.024;2023-03-01T00:44:07;12.45;;;6.55;;
58302;SDS011;44109;52.398;7.024;2023-03-01T00:46:35;11.80;;;7.25;;
58302;SDS011;44109;52.398;7.024;2023-03-01T00:49:03;15.75;;;7.72;;
58302;SDS011;44109;52.398;7.024;2023-03-01T00:51:31;11.32;;;7.25;;
58302;SDS011;44109;52.398;7.024;2023-03-01T00:54:00;10.85;;;7.43;;
58302;SDS011;44109;52.398;7.024;2023-03-01T00:56:29;9.32;;;6.13;;
58302;SDS011;44109;52.398;7.024;2023-03-01T00:58:58;13.15;;;8.13;;
58302;SDS011;44109;52.398;7.024;2023-03-01T01:01:27;12.60;;;8.05;;
58302;SDS011;44109;52.398;7.024;2023-03-01T01:03:58;13.13;;;7.47;;
58302;SDS011;44109;52.398;7.024;2023-03-01T01:06:30;13.80;;;7.50;;
58302;SDS011;44109;52.398;7.024;2023-03-01T01:09:01;14.82;;;7.28;;
58302;SDS011;44109;52.398;7.024;2023-03-01T01:11:30;10.38;;;6.60;;
58302;SDS011;44109;52.398;7.024;2023-03-01T01:13:58;9.55;;;6.68;;
58302;SDS011;44109;52.398;7.024;2023-03-01T01:16:28;12.65;;;7.97;;
58302;SDS011;44109;52.398;7.024;2023-03-01T01:18:56;10.68;;;7.13;;
58302;SDS011;44109;52.398;7.024;2023-03-01T01:21:25;8.75;;;5.43;;
58302;SDS011;44109;52.398;7.024;2023-03-01T01:23:53;12.23;;;6.63;;
58302;SDS011;44109;52.398;7.024;2023-03-01T01:26:23;8.38;;;6.65;;
58302;SDS011;44109;52.398;7.024;2023-03-01T01:28:54;12.10;;;7.18;;
58302;SDS011;44109;52.398;7.024;2023-03-01T01:31:22;12.38;;;7.20;;
58302;SDS011;44109;52.398;7.024;2023-03-01T01:33:53;11.93;;;6.50;;
58302;SDS011;44109;52.398;7.024;2023-03-01T01:36:21;12.82;;;6.85;;
58302;SDS011;44109;52.398;7.024;2023-03-01T01:38:50;12.60;;;7.00;;
58302;SDS011;44109;52.398;7.024;2023-03-01T01:41:18;13.57;;;7.75;;
58302;SDS011;44109;52.398;7.024;2023-03-01T01:43:48;9.95;;;6.22;;
58302;SDS011;44109;52.398;7.024;2023-03-01T01:46:44;11.23;;;7.05;;
58302;SDS011;44109;52.398;7.024;2023-03-01T01:49:20;8.98;;;5.82;;
58302;SDS011;44109;52.398;7.024;2023-03-01T01:51:57;11.00;;;6.53;;
58302;SDS011;44109;52.398;7.024;2023-03-01T01:54:37;11.73;;;7.15;;
58302;SDS011;44109;52.398;7.024;2023-03-01T01:57:12;8.98;;;6.10;;
58302;SDS011;44109;52.398;7.024;2023-03-01T01:59:46;9.25;;;5.95;;
58302;SDS011;44109;52.398;7.024;2023-03-01T02:02:20;13.90;;;7.57;;
58302;SDS011;44109;52.398;7.024;2023-03-01T02:04:49;11.18;;;6.32;;
58302;SDS011;44109;52.398;7.024;2023-03-01T02:07:25;11.38;;;6.80;;
58302;SDS011;44109;52.398;7.024;2023-03-01T02:09:54;10.40;;;6.35;;
58302;SDS011;44109;52.398;7.024;2023-03-01T02:12:23;12.98;;;6.80;;
58302;SDS011;44109;52.398;7.024;2023-03-01T02:14:52;10.30;;;6.15;;
58302;SDS011;44109;52.398;7.024;2023-03-01T02:17:20;10.10;;;5.90;;
58302;SDS011;44109;52.398;7.024;2023-03-01T02:19:54;9.77;;;6.30;;
58302;SDS011;44109;52.398;7.024;2023-03-01T02:22:37;12.10;;;6.85;;
58302;SDS011;44109;52.398;7.024;2023-03-01T02:25:12;10.60;;;6.35;;
58302;SDS011;44109;52.398;7.024;2023-03-01T02:28:08;10.73;;;6.68;;
58302;SDS011;44109;52.398;7.024;2023-03-01T02:30:47;10.77;;;6.00;;
58302;SDS011;44109;52.398;7.024;2023-03-01T02:33:36;11.02;;;7.47;;
58302;SDS011;44109;52.398;7.024;2023-03-01T02:36:06;11.82;;;6.28;;
58302;SDS011;44109;52.398;7.024;2023-03-01T02:38:39;10.40;;;7.43;;
58302;SDS011;44109;52.398;7.024;2023-03-01T02:41:07;13.63;;;7.95;;
58302;SDS011;44109;52.398;7.024;2023-03-01T02:43:41;10.52;;;7.07;;
58302;SDS011;44109;52.398;7.024;2023-03-01T02:46:13;11.73;;;7.28;;
58302;SDS011;44109;52.398;7.024;2023-03-01T02:48:45;11.05;;;6.25;;
58302;SDS011;44109;52.398;7.024;2023-03-01T02:51:22;12.25;;;7.57;;
58302;SDS011;44109;52.398;7.024;2023-03-01T02:54:12;10.85;;;8.18;;
58302;SDS011;44109;52.398;7.024;2023-03-01T02:56:51;12.50;;;7.13;;
58302;SDS011;44109;52.398;7.024;2023-03-01T02:59:22;13.25;;;7.53;;
58302;SDS011;44109;52.398;7.024;2023-03-01T03:01:56;10.40;;;5.70;;
58302;SDS011;44109;52.398;7.024;2023-03-01T03:04:24;12.70;;;6.85;;
58302;SDS011;44109;52.398;7.024;2023-03-01T03:06:51;15.07;;;7.90;;
58302;SDS011;44109;52.398;7.024;2023-03-01T03:09:19;10.90;;;7.43;;
58302;SDS011;44109;52.398;7.024;2023-03-01T03:11:47;12.65;;;6.95;;
58302;SDS011;44109;52.398;7.024;2023-03-01T03:14:15;12.05;;;6.97;;
58302;SDS011;44109;52.398;7.024;2023-03-01T03:16:47;12.13;;;7.15;;
58302;SDS011;44109;52.398;7.024;2023-03-01T03:19:16;12.75;;;7.43;;
58302;SDS011;44109;52.398;7.024;2023-03-01T03:21:46;8.30;;;4.47;;
58302;SDS011;44109;52.398;7.024;2023-03-01T03:24:15;8.35;;;5.32;;
58302;SDS011;44109;52.398;7.024;2023-03-01T03:26:44;14.15;;;7.60;;
58302;SDS011;44109;52.398;7.024;2023-03-01T03:29:11;11.80;;;7.15;;
58302;SDS011;44109;52.398;7.024;2023-03-01T03:31:39;11.52;;;5.70;;
58302;SDS011;44109;52.398;7.024;2023-03-01T03:34:08;6.78;;;5.07;;
58302;SDS011;44109;52.398;7.024;2023-03-01T03:36:43;11.55;;;6.65;;
58302;SDS011;44109;52.398;7.024;2023-03-01T03:39:10;8.50;;;5.72;;
58302;SDS011;44109;52.398;7.024;2023-03-01T03:41:38;10.52;;;6.18;;
58302;SDS011;44109;52.398;7.024;2023-03-01T03:44:06;11.88;;;6.90;;
58302;SDS011;44109;52.398;7.024;2023-03-01T03:46:33;12.00;;;6.30;;
58302;SDS011;44109;52.398;7.024;2023-03-01T03:49:01;8.95;;;5.95;;
58302;SDS011;44109;52.398;7.024;2023-03-01T03:51:30;10.85;;;6.28;;
58302;SDS011;44109;52.398;7.024;2023-03-01T03:53:57;12.85;;;6.22;;
58302;SDS011;44109;52.398;7.024;2023-03-01T03:56:25;11.13;;;7.10;;
58302;SDS011;44109;52.398;7.024;2023-03-01T03:58:52;10.80;;;6.38;;
58302;SDS011;44109;52.398;7.024;2023-03-01T04:01:20;11.02;;;5.85;;
58302;SDS011;44109;52.398;7.024;2023-03-01T04:03:48;10.05;;;6.63;;
58302;SDS011;44109;52.398;7.024;2023-03-01T04:06:20;10.10;;;6.38;;
58302;SDS011;44109;52.398;7.024;2023-03-01T04:08:49;10.48;;;6.68;;
58302;SDS011;44109;52.398;7.024;2023-03-01T04:11:16;9.65;;;6.82;;
58302;SDS011;44109;52.398;7.024;2023-03-01T04:13:54;10.38;;;5.75;;
58302;SDS011;44109;52.398;7.024;2023-03-01T04:16:24;11.93;;;7.18;;
58302;SDS011;44109;52.398;7.024;2023-03-01T04:18:52;9.15;;;5.80;;
58302;SDS011;44109;52.398;7.024;2023-03-01T04:21:20;9.68;;;5.70;;
58302;SDS011;44109;52.398;7.024;2023-03-01T04:23:49;7.68;;;5.03;;
58302;SDS011;44109;52.398;7.024;2023-03-01T04:26:18;9.10;;;6.43;;
58302;SDS011;44109;52.398;7.024;2023-03-01T04:28:46;10.57;;;6.75;;
58302;SDS011;44109;52.398;7.024;2023-03-01T04:31:17;10.68;;;5.70;;
58302;SDS011;44109;52.398;7.024;2023-03-01T04:33:47;10.18;;;6.55;;
58302;SDS011;44109;52.398;7.024;2023-03-01T04:36:18;9.07;;;5.15;;
58302;SDS011;44109;52.398;7.024;2023-03-01T04:38:50;9.50;;;5.95;;
58302;SDS011;44109;52.398;7.024;2023-03-01T04:41:18;9.02;;;4.85;;
58302;SDS011;44109;52.398;7.024;2023-03-01T04:43:49;8.95;;;5.45;;
58302;SDS011;44109;52.398;7.024;2023-03-01T04:46:18;13.00;;;6.72;;
58302;SDS011;44109;52.398;7.024;2023-03-01T04:48:47;10.25;;;6.03;;
58302;SDS011;44109;52.398;7.024;2023-03-01T04:51:15;10.90;;;6.18;;
58302;SDS011;44109;52.398;7.024;2023-03-01T04:53:44;9.75;;;5.25;;
58302;SDS011;44109;52.398;7.024;2023-03-01T04:56:13;10.10;;;6.07;;
58302;SDS011;44109;52.398;7.024;2023-03-01T04:58:41;7.35;;;5.05;;
58302;SDS011;44109;52.398;7.024;2023-03-01T05:01:10;9.13;;;5.80;;
58302;SDS011;44109;52.398;7.024;2023-03-01T05:03:42;11.07;;;5.88;;
58302;SDS011;44109;52.398;7.024;2023-03-01T05:06:11;8.35;;;5.18;;
58302;SDS011;44109;52.398;7.024;2023-03-01T05:08:39;15.85;;;4.88;;
58302;SDS011;44109;52.398;7.024;2023-03-01T05:11:08;9.13;;;5.10;;
58302;SDS011;44109;52.398;7.024;2023-03-01T05:13:39;7.30;;;4.80;;
58302;SDS011;44109;52.398;7.024;2023-03-01T05:16:08;9.07;;;6.05;;
58302;SDS011;44109;52.398;7.024;2023-03-01T05:18:36;7.97;;;5.45;;
58302;SDS011;44109;52.398;7.024;2023-03-01T05:21:06;9.20;;;5.63;;
58302;SDS011;44109;52.398;7.024;2023-03-01T05:23:36;8.88;;;5.70;;
58302;SDS011;44109;52.398;7.024;2023-03-01T05:26:04;9.02;;;5.57;;
58302;SDS011;44109;52.398;7.024;2023-03-01T05:28:33;8.65;;;5.43;;
58302;SDS011;44109;52.398;7.024;2023-03-01T05:31:02;11.98;;;5.90;;
58302;SDS011;44109;52.398;7.024;2023-03-01T05:33:35;11.55;;;5.75;;
58302;SDS011;44109;52.398;7.024;2023-03-01T05:36:04;9.35;;;5.75;;
58302;SDS011;44109;52.398;7.024;2023-03-01T05:38:33;9.00;;;5.88;;
58302;SDS011;44109;52.398;7.024;2023-03-01T05:41:01;10.30;;;6.60;;
58302;SDS011;44109;52.398;7.024;2023-03-01T05:43:29;8.90;;;5.38;;
58302;SDS011;44109;52.398;7.024;2023-03-01T05:45:59;9.57;;;6.45;;
58302;SDS011;44109;52.398;7.024;2023-03-01T05:48:28;15.27;;;7.95;;
58302;SDS011;44109;52.398;7.024;2023-03-01T05:50:58;13.55;;;7.03;;
58302;SDS011;44109;52.398;7.024;2023-03-01T05:53:27;10.10;;;5.78;;
58302;SDS011;44109;52.398;7.024;2023-03-01T05:55:55;9.93;;;6.10;;
58302;SDS011;44109;52.398;7.024;2023-03-01T05:58:23;11.10;;;7.25;;
58302;SDS011;44109;52.398;7.024;2023-03-01T06:00:50;14.23;;;7.57;;
58302;SDS011;44109;52.398;7.024;2023-03-01T06:03:19;13.65;;;8.45;;
58302;SDS011;44109;52.398;7.024;2023-03-01T06:05:47;15.65;;;10.27;;
58302;SDS011;44109;52.398;7.024;2023-03-01T06:08:15;23.52;;;13.88;;
58302;SDS011;44109;52.398;7.024;2023-03-01T06:10:42;26.52;;;15.60;;
58302;SDS011;44109;52.398;7.024;2023-03-01T06:13:10;21.20;;;12.55;;
58302;SDS011;44109;52.398;7.024;2023-03-01T06:15:38;20.95;;;12.13;;
58302;SDS011;44109;52.398;7.024;2023-03-01T06:18:05;24.23;;;14.73;;
58302;SDS011;44109;52.398;7.024;2023-03-01T06:20:34;46.08;;;27.02;;
58302;SDS011;44109;52.398;7.024;2023-03-01T06:23:02;29.45;;;18.33;;
58302;SDS011;44109;52.398;7.024;2023-03-01T06:25:29;21.73;;;11.93;;
58302;SDS011;44109;52.398;7.024;2023-03-01T06:27:57;22.92;;;12.43;;
58302;SDS011;44109;52.398;7.024;2023-03-01T06:30:25;20.80;;;13.13;;
58302;SDS011;44109;52.398;7.024;2023-03-01T06:32:53;15.70;;;9.80;;
58302;SDS011;44109;52.398;7.024;2023-03-01T06:35:26;16.90;;;11.57;;
58302;SDS011;44109;52.398;7.024;2023-03-01T06:37:58;18.95;;;9.70;;
58302;SDS011;44109;52.398;7.024;2023-03-01T06:40:29;17.17;;;9.48;;
58302;SDS011;44109;52.398;7.024;2023-03-01T06:42:58;16.45;;;9.45;;
58302;SDS011;44109;52.398;7.024;2023-03-01T06:45:26;12.82;;;7.95;;
58302;SDS011;44109;52.398;7.024;2023-03-01T06:48:00;16.25;;;9.00;;
58302;SDS011;44109;52.398;7.024;2023-03-01T06:50:30;12.10;;;8.00;;
58302;SDS011;44109;52.398;7.024;2023-03-01T06:52:59;23.23;;;12.55;;
58302;SDS011;44109;52.398;7.024;2023-03-01T06:55:28;19.45;;;11.52;;
58302;SDS011;44109;52.398;7.024;2023-03-01T06:57:56;15.20;;;8.93;;
58302;SDS011;44109;52.398;7.024;2023-03-01T07:00:25;18.27;;;9.98;;
58302;SDS011;44109;52.398;7.024;2023-03-01T07:02:54;17.42;;;9.50;;
58302;SDS011;44109;52.398;7.024;2023-03-01T07:05:25;17.48;;;9.20;;
58302;SDS011;44109;52.398;7.024;2023-03-01T07:07:53;13.88;;;8.80;;
58302;SDS011;44109;52.398;7.024;2023-03-01T07:10:22;15.77;;;8.50;;
58302;SDS011;44109;52.398;7.024;2023-03-01T07:12:53;16.73;;;10.00;;
58302;SDS011;44109;52.398;7.024;2023-03-01T07:15:22;16.85;;;9.32;;
58302;SDS011;44109;52.398;7.024;2023-03-01T07:17:50;14.35;;;8.25;;
58302;SDS011;44109;52.398;7.024;2023-03-01T07:20:18;13.30;;;8.35;;
58302;SDS011;44109;52.398;7.024;2023-03-01T07:22:50;13.57;;;8.48;;
58302;SDS011;44109;52.398;7.024;2023-03-01T07:25:17;14.18;;;8.93;;
58302;SDS011;44109;52.398;7.024;2023-03-01T07:27:49;19.83;;;10.82;;
58302;SDS011;44109;52.398;7.024;2023-03-01T07:30:18;19.52;;;11.95;;
58302;SDS011;44109;52.398;7.024;2023-03-01T07:32:46;21.40;;;11.95;;
58302;SDS011;44109;52.398;7.024;2023-03-01T07:35:14;19.42;;;11.40;;
58302;SDS011;44109;52.398;7.024;2023-03-01T07:37:42;19.98;;;12.50;;
58302;SDS011;44109;52.398;7.024;2023-03-01T07:40:10;17.70;;;11.18;;
58302;SDS011;44109;52.398;7.024;2023-03-01T07:42:39;22.08;;;14.55;;
58302;SDS011;44109;52.398;7.024;2023-03-01T07:45:09;41.03;;;25.50;;
58302;SDS011;44109;52.398;7.024;2023-03-01T07:47:39;57.50;;;34.10;;
58302;SDS011;44109;52.398;7.024;2023-03-01T07:50:07;67.40;;;38.50;;
58302;SDS011;44109;52.398;7.024;2023-03-01T07:52:37;57.90;;;34.40;;
58302;SDS011;44109;52.398;7.024;2023-03-01T07:55:05;58.03;;;36.00;;
58302;SDS011;44109;52.398;7.024;2023-03-01T07:57:36;48.42;;;29.38;;
58302;SDS011;44109;52.398;7.024;2023-03-01T08:00:04;42.67;;;27.58;;
58302;SDS011;44109;52.398;7.024;2023-03-01T08:02:34;35.97;;;23.58;;
58302;SDS011;44109;52.398;7.024;2023-03-01T08:05:02;28.77;;;20.83;;
58302;SDS011;44109;52.398;7.024;2023-03-01T08:07:30;29.48;;;19.98;;
58302;SDS011;44109;52.398;7.024;2023-03-01T08:09:58;24.25;;;17.35;;
58302;SDS011;44109;52.398;7.024;2023-03-01T08:12:26;21.00;;;15.38;;
58302;SDS011;44109;52.398;7.024;2023-03-01T08:14:54;22.95;;;15.82;;
58302;SDS011;44109;52.398;7.024;2023-03-01T08:17:22;18.58;;;13.02;;
58302;SDS011;44109;52.398;7.024;2023-03-01T08:19:52;18.20;;;12.75;;
58302;SDS011;44109;52.398;7.024;2023-03-01T08:22:19;17.17;;;13.20;;
58302;SDS011;44109;52.398;7.024;2023-03-01T08:24:47;13.95;;;11.15;;
58302;SDS011;44109;52.398;7.024;2023-03-01T08:27:15;15.20;;;11.35;;
58302;SDS011;44109;52.398;7.024;2023-03-01T08:29:43;16.40;;;11.90;;
58302;SDS011;44109;52.398;7.024;2023-03-01T08:32:10;13.82;;;10.93;;
58302;SDS011;44109;52.398;7.024;2023-03-01T08:34:38;13.60;;;10.40;;
58302;SDS011;44109;52.398;7.024;2023-03-01T08:37:07;13.02;;;10.00;;
58302;SDS011;44109;52.398;7.024;2023-03-01T08:39:35;13.35;;;9.30;;
58302;SDS011;44109;52.398;7.024;2023-03-01T08:42:03;12.73;;;9.73;;
58302;SDS011;44109;52.398;7.024;2023-03-01T08:44:31;9.82;;;8.20;;
58302;SDS011;44109;52.398;7.024;2023-03-01T08:46:59;9.18;;;8.20;;
58302;SDS011;44109;52.398;7.024;2023-03-01T08:49:28;11.73;;;8.32;;
58302;SDS011;44109;52.398;7.024;2023-03-01T08:51:55;10.10;;;8.38;;
58302;SDS011;44109;52.398;7.024;2023-03-01T08:54:24;9.98;;;8.10;;
58302;SDS011;44109;52.398;7.024;2023-03-01T08:56:52;10.02;;;7.05;;
58302;SDS011;44109;52.398;7.024;2023-03-01T08:59:19;9.00;;;6.97;;
58302;SDS011;44109;52.398;7.024;2023-03-01T09:01:47;9.25;;;7.00;;
58302;SDS011;44109;52.398;7.024;2023-03-01T09:04:15;9.45;;;7.03;;
58302;SDS011;44109;52.398;7.024;2023-03-01T09:06:42;11.10;;;6.65;;
58302;SDS011;44109;52.398;7.024;2023-03-01T09:09:12;8.43;;;6.90;;
58302;SDS011;44109;52.398;7.024;2023-03-01T09:11:44;8.30;;;5.63;;
58302;SDS011;44109;52.398;7.024;2023-03-01T09:14:15;7.82;;;5.57;;
58302;SDS011;44109;52.398;7.024;2023-03-01T09:16:43;7.55;;;5.40;;
58302;SDS011;44109;52.398;7.024;2023-03-01T09:19:11;9.23;;;6.47;;
58302;SDS011;44109;52.398;7.024;2023-03-01T09:21:39;8.35;;;4.95;;
58302;SDS011;44109;52.398;7.024;2023-03-01T09:24:06;6.88;;;5.30;;
58302;SDS011;44109;52.398;7.024;2023-03-01T09:26:41;8.10;;;5.60;;
58302;SDS011;44109;52.398;7.024;2023-03-01T09:29:12;7.25;;;5.47;;
58302;SDS011;44109;52.398;7.024;2023-03-01T09:31:40;7.05;;;5.03;;
58302;SDS011;44109;52.398;7.024;2023-03-01T09:34:08;8.75;;;5.20;;
58302;SDS011;44109;52.398;7.024;2023-03-01T09:36:36;9.07;;;5.72;;
58302;SDS011;44109;52.398;7.024;2023-03-01T09:39:04;8.13;;;5.60;;
58302;SDS011;44109;52.398;7.024;2023-03-01T09:41:44;8.13;;;5.18;;
58302;SDS011;44109;52.398;7.024;2023-03-01T09:44:27;7.68;;;5.57;;
58302;SDS011;44109;52.398;7.024;2023-03-01T09:47:03;7.72;;;5.40;;
58302;SDS011;44109;52.398;7.024;2023-03-01T09:49:32;7.18;;;4.90;;
58302;SDS011;44109;52.398;7.024;2023-03-01T09:52:09;9.02;;;5.28;;
58302;SDS011;44109;52.398;7.024;2023-03-01T09:54:53;5.80;;;4.15;;
58302;SDS011;44109;52.398;7.024;2023-03-01T09:57:28;6.88;;;5.07;;
58302;SDS011;44109;52.398;7.024;2023-03-01T10:00:11;7.65;;;4.65;;
58302;SDS011;44109;52.398;7.024;2023-03-01T10:02:57;7.10;;;4.82;;
58302;SDS011;44109;52.398;7.024;2023-03-01T10:05:42;7.22;;;4.78;;
58302;SDS011;44109;52.398;7.024;2023-03-01T10:08:30;7.93;;;4.55;;
58302;SDS011;44109;52.398;7.024;2023-03-01T10:11:15;6.63;;;4.32;;
58302;SDS011;44109;52.398;7.024;2023-03-01T10:13:52;7.65;;;4.68;;
58302;SDS011;44109;52.398;7.024;2023-03-01T10:16:31;7.65;;;4.95;;
58302;SDS011;44109;52.398;7.024;2023-03-01T10:19:10;6.72;;;4.07;;
58302;SDS011;44109;52.398;7.024;2023-03-01T10:21:48;7.72;;;4.18;;
58302;SDS011;44109;52.398;7.024;2023-03-01T10:24:18;6.18;;;4.63;;
58302;SDS011;44109;52.398;7.024;2023-03-01T10:26:48;5.50;;;4.25;;
58302;SDS011;44109;52.398;7.024;2023-03-01T10:29:25;7.28;;;4.55;;
58302;SDS011;44109;52.398;7.024;2023-03-01T10:32:02;5.32;;;3.38;;
58302;SDS011;44109;52.398;7.024;2023-03-01T10:34:33;6.18;;;3.75;;
58302;SDS011;44109;52.398;7.024;2023-03-01T10:37:08;6.15;;;3.83;;
58302;SDS011;44109;52.398;7.024;2023-03-01T10:39:54;6.25;;;3.97;;
58302;SDS011;44109;52.398;7.024;2023-03-01T10:42:31;6.80;;;4.32;;
58302;SDS011;44109;52.398;7.024;2023-03-01T10:45:17;7.53;;;4.57;;
58302;SDS011;44109;52.398;7.024;2023-03-01T10:48:04;8.80;;;4.45;;
58302;SDS011;44109;52.398;7.024;2023-03-01T10:50:40;7.07;;;4.32;;
58302;SDS011;44109;52.398;7.024;2023-03-01T10:53:23;7.97;;;5.00;;
58302;SDS011;44109;52.398;7.024;2023-03-01T10:55:58;6.43;;;4.07;;
58302;SDS011;44109;52.398;7.024;2023-03-01T10:58:30;8.05;;;3.78;;
58302;SDS011;44109;52.398;7.024;2023-03-01T11:01:01;7.10;;;4.47;;
58302;SDS011;44109;52.398;7.024;2023-03-01T11:03:32;6.47;;;4.88;;
58302;SDS011;44109;52.398;7.024;2023-03-01T11:06:04;7.63;;;4.18;;
58302;SDS011;44109;52.398;7.024;2023-03-01T11:08:47;10.02;;;4.13;;
58302;SDS011;44109;52.398;7.024;2023-03-01T11:11:18;7.50;;;4.80;;
58302;SDS011;44109;52.398;7.024;2023-03-01T11:13:54;8.02;;;4.07;;
58302;SDS011;44109;52.398;7.024;2023-03-01T11:16:31;6.05;;;3.90;;
58302;SDS011;44109;52.398;7.024;2023-03-01T11:19:12;7.20;;;3.85;;
58302;SDS011;44109;52.398;7.024;2023-03-01T11:21:47;5.13;;;3.10;;
58302;SDS011;44109;52.398;7.024;2023-03-01T11:24:27;7.47;;;3.72;;
58302;SDS011;44109;52.398;7.024;2023-03-01T11:27:06;5.53;;;3.40;;
58302;SDS011;44109;52.398;7.024;2023-03-01T11:29:46;6.00;;;3.53;;
58302;SDS011;44109;52.398;7.024;2023-03-01T11:32:23;5.00;;;3.33;;
58302;SDS011;44109;52.398;7.024;2023-03-01T11:34:58;9.93;;;3.72;;
58302;SDS011;44109;52.398;7.024;2023-03-01T11:37:36;6.28;;;4.30;;
58302;SDS011;44109;52.398;7.024;2023-03-01T11:40:15;5.65;;;3.20;;
58302;SDS011;44109;52.398;7.024;2023-03-01T11:42:56;6.28;;;3.75;;
58302;SDS011;44109;52.398;7.024;2023-03-01T11:45:39;5.35;;;3.55;;
58302;SDS011;44109;52.398;7.024;2023-03-01T11:48:35;4.95;;;3.30;;
58302;SDS011;44109;52.398;7.024;2023-03-01T11:51:20;15.45;;;4.03;;
58302;SDS011;44109;52.398;7.024;2023-03-01T11:54:02;5.75;;;3.42;;
58302;SDS011;44109;52.398;7.024;2023-03-01T11:56:57;6.47;;;3.38;;
58302;SDS011;44109;52.398;7.024;2023-03-01T12:02:56;5.55;;;3.60;;
58302;SDS011;44109;52.398;7.024;2023-03-01T12:09:01;5.15;;;2.78;;
58302;SDS011;44109;52.398;7.024;2023-03-01T12:11:57;4.95;;;3.25;;
58302;SDS011;44109;52.398;7.024;2023-03-01T12:14:55;6.05;;;3.20;;
58302;SDS011;44109;52.398;7.024;2023-03-01T12:17:57;5.78;;;3.05;;
58302;SDS011;44109;52.398;7.024;2023-03-01T12:20:47;6.10;;;3.20;;
58302;SDS011;44109;52.398;7.024;2023-03-01T12:23:44;3.55;;;2.85;;
58302;SDS011;44109;52.398;7.024;2023-03-01T12:26:35;6.85;;;3.80;;
58302;SDS011;44109;52.398;7.024;2023-03-01T12:29:20;4.63;;;2.95;;
58302;SDS011;44109;52.398;7.024;2023-03-01T12:35:10;5.88;;;2.85;;
58302;SDS011;44109;52.398;7.024;2023-03-01T12:38:15;3.55;;;2.33;;
58302;SDS011;44109;52.398;7.024;2023-03-01T12:41:05;5.38;;;2.85;;
58302;SDS011;44109;52.398;7.024;2023-03-01T12:44:06;3.83;;;2.50;;
58302;SDS011;44109;52.398;7.024;2023-03-01T12:47:02;5.50;;;3.20;;
58302;SDS011;44109;52.398;7.024;2023-03-01T12:49:48;5.05;;;2.65;;
58302;SDS011;44109;52.398;7.024;2023-03-01T12:52:23;5.45;;;2.97;;
58302;SDS011;44109;52.398;7.024;2023-03-01T12:55:02;5.18;;;3.45;;
58302;SDS011;44109;52.398;7.024;2023-03-01T12:57:51;5.38;;;3.30;;
58302;SDS011;44109;52.398;7.024;2023-03-01T13:00:31;5.78;;;3.08;;
58302;SDS011;44109;52.398;7.024;2023-03-01T13:03:10;5.07;;;3.63;;
58302;SDS011;44109;52.398;7.024;2023-03-01T13:05:55;5.80;;;3.42;;
58302;SDS011;44109;52.398;7.024;2023-03-01T13:08:36;5.40;;;2.78;;
58302;SDS011;44109;52.398;7.024;2023-03-01T13:11:14;6.70;;;3.00;;
58302;SDS011;44109;52.398;7.024;2023-03-01T13:13:47;5.88;;;3.17;;
58302;SDS011;44109;52.398;7.024;2023-03-01T13:16:21;4.55;;;2.97;;
58302;SDS011;44109;52.398;7.024;2023-03-01T13:19:12;5.70;;;2.70;;
58302;SDS011;44109;52.398;7.024;2023-03-01T13:21:43;5.28;;;3.42;;
58302;SDS011;44109;52.398;7.024;2023-03-01T13:24:25;4.85;;;3.13;;
58302;SDS011;44109;52.398;7.024;2023-03-01T13:27:09;5.10;;;2.95;;
58302;SDS011;44109;52.398;7.024;2023-03-01T13:32:21;6.50;;;3.65;;
58302;SDS011;44109;52.398;7.024;2023-03-01T13:34:51;5.50;;;3.50;;
58302;SDS011;44109;52.398;7.024;2023-03-01T13:43:28;4.60;;;3.55;;
58302;SDS011;44109;52.398;7.024;2023-03-01T13:46:00;4.90;;;3.20;;
58302;SDS011;44109;52.398;7.024;2023-03-01T13:48:36;7.30;;;3.70;;
58302;SDS011;44109;52.398;7.024;2023-03-01T13:51:07;5.57;;;3.60;;
58302;SDS011;44109;52.398;7.024;2023-03-01T13:53:40;5.85;;;3.17;;
58302;SDS011;44109;52.398;7.024;2023-03-01T13:56:12;5.65;;;3.40;;
58302;SDS011;44109;52.398;7.024;2023-03-01T13:58:46;4.85;;;3.10;;
58302;SDS011;44109;52.398;7.024;2023-03-01T14:01:27;5.78;;;3.60;;
58302;SDS011;44109;52.398;7.024;2023-03-01T14:03:57;5.30;;;3.45;;
58302;SDS011;44109;52.398;7.024;2023-03-01T14:06:27;4.13;;;3.17;;
58302;SDS011;44109;52.398;7.024;2023-03-01T14:09:03;7.22;;;3.63;;
58302;SDS011;44109;52.398;7.024;2023-03-01T14:14:45;4.70;;;3.58;;
58302;SDS011;44109;52.398;7.024;2023-03-01T14:17:34;6.10;;;3.53;;
58302;SDS011;44109;52.398;7.024;2023-03-01T14:20:23;5.28;;;3.55;;
58302;SDS011;44109;52.398;7.024;2023-03-01T14:22:54;6.25;;;3.28;;
58302;SDS011;44109;52.398;7.024;2023-03-01T14:25:26;5.72;;;3.50;;
58302;SDS011;44109;52.398;7.024;2023-03-01T14:27:58;4.22;;;3.08;;
58302;SDS011;44109;52.398;7.024;2023-03-01T14:30:31;5.07;;;3.65;;
58302;SDS011;44109;52.398;7.024;2023-03-01T14:33:06;6.32;;;3.25;;
58302;SDS011;44109;52.398;7.024;2023-03-01T14:35:57;5.95;;;3.58;;
58302;SDS011;44109;52.398;7.024;2023-03-01T14:38:32;5.07;;;3.38;;
58302;SDS011;44109;52.398;7.024;2023-03-01T14:41:03;4.65;;;2.95;;
58302;SDS011;44109;52.398;7.024;2023-03-01T14:43:36;6.32;;;3.50;;
58302;SDS011;44109;52.398;7.024;2023-03-01T14:46:16;6.35;;;3.88;;
58302;SDS011;44109;52.398;7.024;2023-03-01T14:48:49;4.95;;;3.22;;
58302;SDS011;44109;52.398;7.024;2023-03-01T14:51:19;5.47;;;3.00;;
58302;SDS011;44109;52.398;7.024;2023-03-01T14:53:47;5.18;;;3.45;;
58302;SDS011;44109;52.398;7.024;2023-03-01T14:56:16;5.68;;;3.25;;
58302;SDS011;44109;52.398;7.024;2023-03-01T14:58:45;5.43;;;3.63;;
58302;SDS011;44109;52.398;7.024;2023-03-01T15:01:17;7.57;;;4.00;;
58302;SDS011;44109;52.398;7.024;2023-03-01T15:03:46;4.13;;;3.08;;
58302;SDS011;44109;52.398;7.024;2023-03-01T15:06:18;6.15;;;3.38;;
58302;SDS011;44109;52.398;7.024;2023-03-01T15:08:49;5.78;;;2.90;;
58302;SDS011;44109;52.398;7.024;2023-03-01T15:11:22;5.68;;;3.22;;
58302;SDS011;44109;52.398;7.024;2023-03-01T15:13:53;6.93;;;3.70;;
58302;SDS011;44109;52.398;7.024;2023-03-01T15:16:22;5.80;;;3.15;;
58302;SDS011;44109;52.398;7.024;2023-03-01T15:18:54;6.85;;;3.70;;
58302;SDS011;44109;52.398;7.024;2023-03-01T15:21:26;6.65;;;3.92;;
58302;SDS011;44109;52.398;7.024;2023-03-01T15:24:00;5.88;;;3.28;;
58302;SDS011;44109;52.398;7.024;2023-03-01T15:26:45;5.88;;;3.55;;
58302;SDS011;44109;52.398;7.024;2023-03-01T15:29:22;5.88;;;3.50;;
58302;SDS011;44109;52.398;7.024;2023-03-01T15:31:56;5.45;;;3.35;;
58302;SDS011;44109;52.398;7.024;2023-03-01T15:34:28;5.22;;;3.63;;
58302;SDS011;44109;52.398;7.024;2023-03-01T15:36:58;6.28;;;4.00;;